createdAt,value
2022-08-05T00:02:24.099Z,4.18
2022-08-05T00:04:55.487Z,4.53
2022-08-05T00:07:59.161Z,3.88
2022-08-05T00:10:11.341Z,3.85
2022-08-05T00:12:56.126Z,3.70
2022-08-05T00:15:57.578Z,3.83
2022-08-05T00:18:21.843Z,3.38
2022-08-05T00:20:50.638Z,3.55
2022-08-05T00:23:44.731Z,3.55
2022-08-05T00:26:06.518Z,3.65
2022-08-05T00:28:34.125Z,4.30
2022-08-05T00:31:03.007Z,3.80
2022-08-05T00:34:54.674Z,4.07
2022-08-05T00:37:10.483Z,3.95
2022-08-05T00:39:13.496Z,4.43
2022-08-05T00:41:55.068Z,4.00
2022-08-05T00:44:30.797Z,3.90
2022-08-05T00:47:01.630Z,3.95
2022-08-05T00:49:32.363Z,4.05
2022-08-05T00:52:00.608Z,4.32
2022-08-05T00:54:30.157Z,4.03
2022-08-05T00:56:58.152Z,3.90
2022-08-05T00:59:25.861Z,4.22
2022-08-05T01:02:02.293Z,4.10
2022-08-05T01:04:31.226Z,4.28
2022-08-05T01:06:58.989Z,3.72
2022-08-05T01:09:27.424Z,4.10
2022-08-05T01:12:04.767Z,3.85
2022-08-05T01:14:48.918Z,3.63
2022-08-05T01:17:20.655Z,3.75
2022-08-05T01:20:02.214Z,4.28
2022-08-05T01:22:42.703Z,4.32
2022-08-05T01:25:41.021Z,4.10
2022-08-05T01:28:22.758Z,4.45
2022-08-05T01:30:55.404Z,4.20
2022-08-05T01:33:27.264Z,4.15
2022-08-05T01:36:04.306Z,4.32
2022-08-05T01:38:33.054Z,4.50
2022-08-05T01:41:01.886Z,3.88
2022-08-05T01:43:32.688Z,3.90
2022-08-05T01:46:07.166Z,4.30
2022-08-05T01:48:45.084Z,4.13
2022-08-05T01:51:18.121Z,4.15
2022-08-05T01:53:58.301Z,3.95
2022-08-05T01:58:12.460Z,4.43
2022-08-05T01:59:22.559Z,4.82
2022-08-05T02:01:50.816Z,4.75
2022-08-05T02:04:19.533Z,4.20
2022-08-05T02:06:47.168Z,4.70
2022-08-05T02:09:16.471Z,4.60
2022-08-05T02:11:52.277Z,4.38
2022-08-05T02:14:27.574Z,4.60
2022-08-05T02:16:56.128Z,4.32
2022-08-05T02:19:33.469Z,4.35
2022-08-05T02:22:06.688Z,4.88
2022-08-05T02:24:37.979Z,4.65
2022-08-05T02:27:09.860Z,4.10
2022-08-05T02:29:59.233Z,4.13
2022-08-05T02:32:31.509Z,4.00
2022-08-05T02:35:02.094Z,3.88
2022-08-05T02:37:42.632Z,3.88
2022-08-05T02:40:17.461Z,4.03
2022-08-05T02:42:52.828Z,3.97
2022-08-05T02:45:24.104Z,3.65
2022-08-05T02:48:06.825Z,3.65
2022-08-05T02:50:44.029Z,3.83
2022-08-05T02:53:18.636Z,3.70
2022-08-05T02:55:54.225Z,3.63
2022-08-05T02:58:26.765Z,4.10
2022-08-05T03:00:56.794Z,4.00
2022-08-05T03:03:24.980Z,4.63
2022-08-05T03:06:56.473Z,4.10
2022-08-05T03:08:42.831Z,4.53
2022-08-05T03:11:53.307Z,3.97
2022-08-05T03:14:08.020Z,4.00
2022-08-05T03:16:37.178Z,4.03
2022-08-05T03:19:17.167Z,3.83
2022-08-05T03:21:52.490Z,3.95
2022-08-05T03:24:26.843Z,3.80
2022-08-05T03:26:58.090Z,3.60
2022-08-05T03:29:44.468Z,3.95
2022-08-05T03:32:15.367Z,3.72
2022-08-05T03:34:51.229Z,3.60
2022-08-05T03:37:19.680Z,4.10
2022-08-05T03:39:58.536Z,3.60
2022-08-05T03:42:27.015Z,3.55
2022-08-05T03:44:57.002Z,3.38
2022-08-05T03:47:35.245Z,3.40
2022-08-05T03:50:03.473Z,3.47
2022-08-05T03:55:00.387Z,3.28
2022-08-05T03:56:04.749Z,3.53
2022-08-05T03:58:17.556Z,3.65
2022-08-05T04:00:51.344Z,3.55
2022-08-05T04:03:28.542Z,3.75
2022-08-05T04:05:57.786Z,3.70
2022-08-05T04:08:35.026Z,3.22
2022-08-05T04:11:05.241Z,3.75
2022-08-05T04:13:51.035Z,3.88
2022-08-05T04:16:25.030Z,3.28
2022-08-05T04:19:01.051Z,3.70
2022-08-05T04:22:09.008Z,3.58
2022-08-05T04:24:19.195Z,3.33
2022-08-05T04:26:50.083Z,3.85
2022-08-05T04:29:17.669Z,3.55
2022-08-05T04:31:46.304Z,3.60
2022-08-05T04:34:32.399Z,3.67
2022-08-05T04:37:03.004Z,3.88
2022-08-05T04:39:31.100Z,3.90
2022-08-05T04:41:59.907Z,3.75
2022-08-05T04:44:29.496Z,4.20
2022-08-05T04:46:59.316Z,3.80
2022-08-05T04:49:38.584Z,3.85
2022-08-05T04:52:16.232Z,3.78
2022-08-05T04:54:43.897Z,3.72
2022-08-05T04:57:11.436Z,3.60
2022-08-05T04:59:40.827Z,3.58
2022-08-05T05:02:41.436Z,3.38
2022-08-05T05:05:01.773Z,3.55
2022-08-05T05:07:31.952Z,4.05
2022-08-05T05:10:04.251Z,4.00
2022-08-05T05:12:32.740Z,3.88
2022-08-05T05:15:00.835Z,4.20
2022-08-05T05:17:56.373Z,4.10
2022-08-05T05:20:28.445Z,3.95
2022-08-05T05:22:56.507Z,4.00
2022-08-05T05:25:40.257Z,4.55
2022-08-05T05:28:08.378Z,4.07
2022-08-05T05:30:36.936Z,4.65
2022-08-05T05:33:16.512Z,4.15
2022-08-05T05:35:47.081Z,4.25
2022-08-05T05:38:22.768Z,4.32
2022-08-05T05:40:55.701Z,3.95
2022-08-05T05:43:54.362Z,4.20
2022-08-05T05:46:17.744Z,4.70
2022-08-05T05:48:48.213Z,4.57
2022-08-05T05:51:24.287Z,4.50
2022-08-05T05:53:58.704Z,4.50
2022-08-05T05:56:33.278Z,4.25
2022-08-05T05:59:03.485Z,4.88
2022-08-05T06:01:37.617Z,4.63
2022-08-05T06:04:06.983Z,4.93
2022-08-05T06:06:36.240Z,4.00
2022-08-05T06:09:04.422Z,4.65
2022-08-05T06:11:31.977Z,4.18
2022-08-05T06:14:00.324Z,4.15
2022-08-05T06:16:32.763Z,3.80
2022-08-05T06:19:05.803Z,4.32
2022-08-05T06:21:37.503Z,4.53
2022-08-05T06:24:06.354Z,3.95
2022-08-05T06:26:39.392Z,4.03
2022-08-05T06:29:25.349Z,3.97
2022-08-05T06:31:54.595Z,3.60
2022-08-05T06:34:22.194Z,3.65
2022-08-05T06:36:58.030Z,3.72
2022-08-05T06:39:27.908Z,3.67
2022-08-05T06:41:57.332Z,4.15
2022-08-05T06:44:26.368Z,3.78
2022-08-05T06:46:54.374Z,3.78
2022-08-05T06:50:01.543Z,4.13
2022-08-05T06:52:37.496Z,4.15
2022-08-05T06:54:58.751Z,3.83
2022-08-05T06:57:57.427Z,3.80
2022-08-05T07:00:14.316Z,3.80
2022-08-05T07:02:53.584Z,3.45
2022-08-05T07:05:31.922Z,3.75
2022-08-05T07:08:10.017Z,3.97
2022-08-05T07:10:38.889Z,3.55
2022-08-05T07:13:59.164Z,3.83
2022-08-05T07:18:00.540Z,3.38
2022-08-05T07:22:22.047Z,3.35
2022-08-05T07:24:58.375Z,3.17
2022-08-05T07:27:27.625Z,3.80
2022-08-05T07:30:22.740Z,3.15
2022-08-05T07:32:55.921Z,2.95
2022-08-05T07:36:01.877Z,3.60
2022-08-05T07:38:32.835Z,3.50
2022-08-05T07:41:16.463Z,3.50
2022-08-05T07:43:49.452Z,3.85
2022-08-05T07:46:24.647Z,3.47
2022-08-05T07:49:04.225Z,3.47
2022-08-05T07:51:48.505Z,3.20
2022-08-05T07:54:26.297Z,2.72
2022-08-05T07:57:01.451Z,2.85
2022-08-05T07:59:42.624Z,3.22
2022-08-05T08:02:16.134Z,2.83
2022-08-05T08:04:45.557Z,3.05
2022-08-05T08:07:13.394Z,2.95
2022-08-05T08:09:41.075Z,3.15
2022-08-05T08:12:20.223Z,2.58
2022-08-05T08:14:57.722Z,3.13
2022-08-05T08:17:30.522Z,2.80
2022-08-05T08:20:43.531Z,2.80
2022-08-05T08:22:51.514Z,2.70
2022-08-05T08:25:27.059Z,2.85
2022-08-05T08:28:18.082Z,2.75
2022-08-05T08:30:47.948Z,2.50
2022-08-05T08:33:17.606Z,2.50
2022-08-05T08:35:52.982Z,2.28
2022-08-05T08:38:35.176Z,2.65
2022-08-05T08:41:07.237Z,2.25
2022-08-05T08:45:20.709Z,2.72
2022-08-05T08:46:25.135Z,2.30
2022-08-05T08:49:07.982Z,2.92
2022-08-05T08:52:03.798Z,2.40
2022-08-05T08:54:31.724Z,2.33
2022-08-05T08:57:00.026Z,2.33
2022-08-05T08:59:33.537Z,2.28
2022-08-05T09:02:01.678Z,2.80
2022-08-05T09:04:31.075Z,2.60
2022-08-05T09:06:58.845Z,2.20
2022-08-05T09:09:34.666Z,2.30
2022-08-05T09:12:14.386Z,2.72
2022-08-05T09:14:58.582Z,2.03
2022-08-05T09:17:40.478Z,2.05
2022-08-05T09:20:10.120Z,2.00
2022-08-05T09:22:56.498Z,2.13
2022-08-05T09:26:03.110Z,2.35
2022-08-05T09:28:23.429Z,2.40
2022-08-05T09:30:56.252Z,2.45
2022-08-05T09:33:24.665Z,2.00
2022-08-05T09:36:11.709Z,2.10
2022-08-05T09:38:56.674Z,2.13
2022-08-05T09:41:24.811Z,2.30
2022-08-05T09:43:53.678Z,2.00
2022-08-05T09:46:28.551Z,2.08
2022-08-05T09:49:08.453Z,2.15
2022-08-05T09:51:44.599Z,2.15
2022-08-05T09:54:21.147Z,2.20
2022-08-05T09:56:57.389Z,2.25
2022-08-05T09:59:27.694Z,2.35
2022-08-05T10:01:57.922Z,2.25
2022-08-05T10:04:35.900Z,2.05
2022-08-05T10:07:19.895Z,2.15
2022-08-05T10:10:14.313Z,2.30
2022-08-05T10:12:49.891Z,2.17
2022-08-05T10:15:20.188Z,2.13
2022-08-05T10:18:04.827Z,2.10
2022-08-05T10:20:33.232Z,2.40
2022-08-05T10:23:01.623Z,2.55
2022-08-05T10:25:29.448Z,2.30
2022-08-05T10:28:13.272Z,2.20
2022-08-05T10:32:48.134Z,2.10
2022-08-05T10:33:36.115Z,2.30
2022-08-05T10:36:04.965Z,2.13
2022-08-05T10:38:33.543Z,2.20
2022-08-05T10:41:05.042Z,2.00
2022-08-05T10:43:38.133Z,2.35
2022-08-05T10:46:07.070Z,2.40
2022-08-05T10:48:56.719Z,2.20
2022-08-05T10:51:28.799Z,2.30
2022-08-05T10:54:01.540Z,2.22
2022-08-05T10:56:45.068Z,2.47
2022-08-05T11:00:02.102Z,2.13
2022-08-05T11:02:08.183Z,2.13
2022-08-05T11:04:45.896Z,2.60
2022-08-05T11:07:16.405Z,2.50
2022-08-05T11:09:47.890Z,2.13
2022-08-05T11:12:34.271Z,2.30
2022-08-05T11:15:19.140Z,2.28
2022-08-05T11:17:58.859Z,2.30
2022-08-05T11:20:39.240Z,2.22
2022-08-05T11:23:33.771Z,2.42
2022-08-05T11:26:32.083Z,2.22
2022-08-05T11:29:06.863Z,2.42
2022-08-05T11:31:57.742Z,2.30
2022-08-05T11:34:39.369Z,2.55
2022-08-05T11:38:36.715Z,2.00
2022-08-05T11:40:02.911Z,2.17
2022-08-05T11:42:32.630Z,2.38
2022-08-05T11:45:14.254Z,2.95
2022-08-05T11:47:55.055Z,2.00
2022-08-05T11:50:22.954Z,2.10
2022-08-05T11:52:57.713Z,2.13
2022-08-05T11:55:32.234Z,2.30
2022-08-05T11:58:09.175Z,2.20
2022-08-05T12:00:41.326Z,6.30
2022-08-05T12:03:23.933Z,8.50
2022-08-05T12:05:59.642Z,2.60
2022-08-05T12:08:29.024Z,2.45
2022-08-05T12:11:06.024Z,2.60
2022-08-05T12:13:49.614Z,2.40
2022-08-05T12:16:19.427Z,2.30
2022-08-05T12:18:49.426Z,2.28
2022-08-05T12:21:21.659Z,2.22
2022-08-05T12:23:58.461Z,2.20
2022-08-05T12:26:31.622Z,2.38
2022-08-05T12:28:59.559Z,2.38
2022-08-05T12:31:33.507Z,2.60
2022-08-05T12:34:20.615Z,2.33
2022-08-05T12:36:49.662Z,2.42
2022-08-05T12:39:19.213Z,2.28
2022-08-05T12:41:47.194Z,2.33
2022-08-05T12:44:21.775Z,2.20
2022-08-05T12:47:00.323Z,2.22
2022-08-05T12:50:03.969Z,2.92
2022-08-05T12:52:35.394Z,23.65
2022-08-05T12:55:22.470Z,2.75
2022-08-05T12:58:50.061Z,2.67
2022-08-05T13:02:02.215Z,2.45
2022-08-05T13:03:32.327Z,2.60
2022-08-05T13:06:01.026Z,2.40
2022-08-05T13:08:30.072Z,2.40
2022-08-05T13:11:01.990Z,2.53
2022-08-05T13:14:05.546Z,2.55
2022-08-05T13:16:19.540Z,2.55
2022-08-05T13:18:55.207Z,2.47
2022-08-05T13:21:28.480Z,2.80
2022-08-05T13:24:06.157Z,2.53
2022-08-05T13:26:37.999Z,2.53
2022-08-05T13:29:08.820Z,2.30
2022-08-05T13:32:04.890Z,2.50
2022-08-05T13:34:26.175Z,2.70
2022-08-05T13:36:54.179Z,2.53
2022-08-05T13:40:14.313Z,2.40
2022-08-05T13:42:17.802Z,2.60
2022-08-05T13:44:52.837Z,2.75
2022-08-05T13:47:34.890Z,2.40
2022-08-05T13:50:16.562Z,2.50
2022-08-05T13:52:50.954Z,2.47
2022-08-05T13:55:40.940Z,2.47
2022-08-05T13:58:08.608Z,3.20
2022-08-05T14:00:38.973Z,2.80
2022-08-05T14:03:09.389Z,2.50
2022-08-05T14:06:24.496Z,2.35
2022-08-05T14:08:27.372Z,2.33
2022-08-05T14:11:03.255Z,2.63
2022-08-05T14:13:47.969Z,2.70
2022-08-05T14:16:16.942Z,3.08
2022-08-05T14:18:46.783Z,2.60
2022-08-05T14:22:08.197Z,2.72
2022-08-05T14:24:02.268Z,2.70
2022-08-05T14:26:35.846Z,2.80
2022-08-05T14:29:16.722Z,2.47
2022-08-05T14:32:03.751Z,2.47
2022-08-05T14:34:35.484Z,2.92
2022-08-05T14:37:03.685Z,2.50
2022-08-05T14:39:31.801Z,2.60
2022-08-05T14:42:29.375Z,2.80
2022-08-05T14:44:58.523Z,2.60
2022-08-05T14:48:02.972Z,2.80
2022-08-05T14:50:19.055Z,2.83
2022-08-05T14:52:53.556Z,2.40
2022-08-05T14:55:25.744Z,2.50
2022-08-05T14:57:56.702Z,2.58
2022-08-05T15:00:29.541Z,2.50
2022-08-05T15:02:57.285Z,2.70
2022-08-05T15:05:30.118Z,2.75
2022-08-05T15:08:38.139Z,2.80
2022-08-05T15:11:02.852Z,3.00
2022-08-05T15:13:45.756Z,3.20
2022-08-05T15:16:15.444Z,2.88
2022-08-05T15:18:47.090Z,2.67
2022-08-05T15:21:15.070Z,3.15
2022-08-05T15:23:48.623Z,2.80
2022-08-05T15:26:17.531Z,2.97
2022-08-05T15:28:59.936Z,3.50
2022-08-05T15:31:34.907Z,3.03
2022-08-05T15:34:18.446Z,2.70
2022-08-05T15:36:50.377Z,2.95
2022-08-05T15:41:00.501Z,3.20
2022-08-05T15:42:53.909Z,2.75
2022-08-05T15:44:54.932Z,2.75
2022-08-05T15:47:24.172Z,3.10
2022-08-05T15:49:58.887Z,3.00
2022-08-05T15:52:52.641Z,3.40
2022-08-05T15:55:16.550Z,3.05
2022-08-05T15:57:45.060Z,3.40
2022-08-05T16:00:13.188Z,3.50
2022-08-05T16:02:46.316Z,3.72
2022-08-05T16:05:14.767Z,3.55
2022-08-05T16:07:46.639Z,2.90
2022-08-05T16:10:16.857Z,3.13
2022-08-05T16:12:51.730Z,3.00
2022-08-05T16:15:21.459Z,4.28
2022-08-05T16:17:57.525Z,2.67
2022-08-05T16:20:25.728Z,3.40
2022-08-05T16:22:55.613Z,3.00
2022-08-05T16:25:32.189Z,3.30
2022-08-05T16:28:05.886Z,3.25
2022-08-05T16:30:34.315Z,3.25
2022-08-05T16:33:05.438Z,3.17
2022-08-05T16:35:33.593Z,3.03
2022-08-05T16:38:24.632Z,3.30
2022-08-05T16:40:59.761Z,3.00
2022-08-05T16:43:29.199Z,3.50
2022-08-05T16:46:03.933Z,3.50
2022-08-05T16:48:37.938Z,3.38
2022-08-05T16:51:09.098Z,3.55
2022-08-05T16:54:06.017Z,3.00
2022-08-05T16:56:26.389Z,3.60
2022-08-05T16:58:54.012Z,3.08
2022-08-05T17:01:21.914Z,3.20
2022-08-05T17:03:53.679Z,3.03
2022-08-05T17:06:24.683Z,3.17
2022-08-05T17:08:54.328Z,3.20
2022-08-05T17:11:23.702Z,3.22
2022-08-05T17:14:00.435Z,3.63
2022-08-05T17:16:36.787Z,3.17
2022-08-05T17:19:07.481Z,3.15
2022-08-05T17:21:37.152Z,2.97
2022-08-05T17:24:13.254Z,2.80
2022-08-05T17:26:53.558Z,3.03
2022-08-05T17:29:39.931Z,3.15
2022-08-05T17:32:11.824Z,3.10
2022-08-05T17:34:47.869Z,2.80
2022-08-05T17:37:40.825Z,3.00
2022-08-05T17:40:04.585Z,2.88
2022-08-05T17:42:41.795Z,2.90
2022-08-05T17:45:20.399Z,2.95
2022-08-05T17:47:54.093Z,3.00
2022-08-05T17:50:28.516Z,3.10
2022-08-05T17:52:58.963Z,3.20
2022-08-05T17:55:34.588Z,3.70
2022-08-05T17:58:06.826Z,3.00
2022-08-05T18:00:35.418Z,2.90
2022-08-05T18:03:03.128Z,2.65
2022-08-05T18:05:35.509Z,2.92
2022-08-05T18:08:03.879Z,2.90
2022-08-05T18:10:32.228Z,3.10
2022-08-05T18:13:02.003Z,3.30
2022-08-05T18:15:36.189Z,3.30
2022-08-05T18:18:11.154Z,2.92
2022-08-05T18:20:40.527Z,2.80
2022-08-05T18:23:17.314Z,3.00
2022-08-05T18:25:45.825Z,3.05
2022-08-05T18:28:16.253Z,3.17
2022-08-05T18:30:44.985Z,3.15
2022-08-05T18:33:13.638Z,2.92
2022-08-05T18:36:00.553Z,3.10
2022-08-05T18:38:31.234Z,3.58
2022-08-05T18:41:56.033Z,2.95
2022-08-05T18:43:48.651Z,3.20
2022-08-05T18:46:20.248Z,3.45
2022-08-05T18:48:52.144Z,3.50
2022-08-05T18:52:04.542Z,4.38
2022-08-05T18:54:27.552Z,4.15
2022-08-05T18:56:57.126Z,4.40
2022-08-05T18:59:45.702Z,4.25
2022-08-05T19:02:28.011Z,5.35
2022-08-05T19:05:02.641Z,4.82
2022-08-05T19:07:50.242Z,4.50
2022-08-05T19:10:28.448Z,4.57
2022-08-05T19:12:56.775Z,5.10
2022-08-05T19:15:56.582Z,4.78
2022-08-05T19:18:20.569Z,4.88
2022-08-05T19:20:49.995Z,5.35
2022-08-05T19:24:03.671Z,5.25
2022-08-05T19:26:09.236Z,5.30
2022-08-05T19:28:41.535Z,5.75
2022-08-05T19:31:09.757Z,5.55
2022-08-05T19:33:48.206Z,5.85
2022-08-05T19:36:24.643Z,5.75
2022-08-05T19:38:54.363Z,5.75
2022-08-05T19:41:58.360Z,5.88
2022-08-05T19:44:13.438Z,6.47
2022-08-05T19:46:43.818Z,6.72
2022-08-05T19:49:16.475Z,6.35
2022-08-05T19:52:05.668Z,6.72
2022-08-05T19:54:34.838Z,5.68
2022-08-05T19:57:06.599Z,6.13
2022-08-05T20:00:00.754Z,6.43
2022-08-05T20:02:25.928Z,7.25
2022-08-05T20:04:55.525Z,6.35
2022-08-05T20:07:48.595Z,6.25
2022-08-05T20:10:15.858Z,6.50
2022-08-05T20:12:47.646Z,6.63
2022-08-05T20:15:15.952Z,6.10
2022-08-05T20:18:04.381Z,6.45
2022-08-05T20:20:39.101Z,7.40
2022-08-05T20:23:07.575Z,6.60
2022-08-05T20:25:39.968Z,7.07
2022-08-05T20:28:08.334Z,7.25
2022-08-05T20:30:42.170Z,7.95
2022-08-05T20:33:09.859Z,7.90
2022-08-05T20:35:40.479Z,8.43
2022-08-05T20:38:20.063Z,8.93
2022-08-05T20:40:56.569Z,7.78
2022-08-05T20:43:33.357Z,9.60
2022-08-05T20:46:18.600Z,8.77
2022-08-05T20:48:52.760Z,8.23
2022-08-05T20:51:22.675Z,8.70
2022-08-05T20:53:56.966Z,8.95
2022-08-05T20:56:29.126Z,8.65
2022-08-05T20:58:59.965Z,7.60
2022-08-05T21:01:41.794Z,8.20
2022-08-05T21:04:10.531Z,7.93
2022-08-05T21:06:45.594Z,8.85
2022-08-05T21:09:14.283Z,9.40
2022-08-05T21:12:09.372Z,9.60
2022-08-05T21:14:34.896Z,10.27
2022-08-05T21:17:05.234Z,10.05
2022-08-05T21:19:46.849Z,9.23
2022-08-05T21:22:15.461Z,10.10
2022-08-05T21:24:48.921Z,9.60
2022-08-05T21:27:25.547Z,8.82
2022-08-05T21:29:55.767Z,8.93
2022-08-05T21:32:24.561Z,8.02
2022-08-05T21:35:17.432Z,7.75
2022-08-05T21:37:52.763Z,8.90
2022-08-05T21:40:22.016Z,8.52
2022-08-05T21:42:53.822Z,9.00
2022-08-05T21:45:25.104Z,8.38
2022-08-05T21:48:09.966Z,7.93
2022-08-05T21:50:41.214Z,8.07
2022-08-05T21:53:20.566Z,7.72
2022-08-05T21:56:04.410Z,6.70
2022-08-05T21:58:42.391Z,7.25
2022-08-05T22:01:10.560Z,5.97
2022-08-05T22:03:48.545Z,6.22
2022-08-05T22:06:22.405Z,4.47
2022-08-05T22:08:52.133Z,4.60
2022-08-05T22:11:21.245Z,4.38
2022-08-05T22:14:32.725Z,4.30
2022-08-05T22:16:56.063Z,4.20
2022-08-05T22:20:03.133Z,4.07
2022-08-05T22:22:15.631Z,3.85
2022-08-05T22:25:01.099Z,3.55
2022-08-05T22:28:08.177Z,3.78
2022-08-05T22:30:35.714Z,3.60
2022-08-05T22:33:03.966Z,3.47
2022-08-05T22:35:49.235Z,3.53
2022-08-05T22:38:17.190Z,3.55
2022-08-05T22:40:49.871Z,3.40
2022-08-05T22:43:36.330Z,3.40
2022-08-05T22:46:13.660Z,3.45
2022-08-05T22:48:51.199Z,3.40
2022-08-05T22:51:23.348Z,3.38
2022-08-05T22:54:06.936Z,3.85
2022-08-05T22:56:34.936Z,3.70
2022-08-05T22:59:43.895Z,3.53
2022-08-05T23:02:06.167Z,3.53
2022-08-05T23:04:35.473Z,3.60
2022-08-05T23:07:03.590Z,3.30
2022-08-05T23:09:53.345Z,3.80
2022-08-05T23:12:20.397Z,3.83
2022-08-05T23:14:51.748Z,3.85
2022-08-05T23:17:34.230Z,3.60
2022-08-05T23:20:06.257Z,3.90
2022-08-05T23:22:47.354Z,3.60
2022-08-05T23:25:17.605Z,3.58
2022-08-05T23:28:03.220Z,3.47
2022-08-05T23:30:40.280Z,3.45
2022-08-05T23:33:16.502Z,4.57
2022-08-05T23:35:55.070Z,3.00
2022-08-05T23:38:24.453Z,3.45
2022-08-05T23:40:52.559Z,3.35
2022-08-05T23:43:25.104Z,3.40
2022-08-05T23:46:05.280Z,3.33
2022-08-05T23:49:01.201Z,3.03
2022-08-05T23:51:52.391Z,3.25
2022-08-05T23:54:26.109Z,2.80
2022-08-05T23:56:55.216Z,2.70
2022-08-05T23:59:22.996Z,2.53
